sensor_id;sensor_type;location;lat;lon;timestamp;P1;durP1;ratioP1;P2;durP2;ratioP2
28627;SDS011;15815;46.760;19.604;2022-12-18T00:00:46;83.03;;;37.03;;
28627;SDS011;15815;46.760;19.604;2022-12-18T00:03:13;73.13;;;34.53;;
28627;SDS011;15815;46.760;19.604;2022-12-18T00:05:51;84.55;;;37.28;;
28627;SDS011;15815;46.760;19.604;2022-12-18T00:08:18;83.43;;;38.55;;
28627;SDS011;15815;46.760;19.604;2022-12-18T00:10:44;77.72;;;37.63;;
28627;SDS011;15815;46.760;19.604;2022-12-18T00:13:10;84.07;;;37.33;;
28627;SDS011;15815;46.760;19.604;2022-12-18T00:15:36;82.18;;;37.35;;
28627;SDS011;15815;46.760;19.604;2022-12-18T00:18:03;76.53;;;35.80;;
28627;SDS011;15815;46.760;19.604;2022-12-18T00:20:29;83.40;;;36.15;;
28627;SDS011;15815;46.760;19.604;2022-12-18T00:22:54;81.55;;;36.88;;
28627;SDS011;15815;46.760;19.604;2022-12-18T00:25:22;94.15;;;37.58;;
28627;SDS011;15815;46.760;19.604;2022-12-18T00:27:48;84.18;;;36.95;;
28627;SDS011;15815;46.760;19.604;2022-12-18T00:30:13;75.63;;;34.95;;
28627;SDS011;15815;46.760;19.604;2022-12-18T00:32:39;80.57;;;36.28;;
28627;SDS011;15815;46.760;19.604;2022-12-18T00:35:05;81.40;;;35.47;;
28627;SDS011;15815;46.760;19.604;2022-12-18T00:37:33;74.55;;;33.45;;
28627;SDS011;15815;46.760;19.604;2022-12-18T00:40:02;69.18;;;34.60;;
28627;SDS011;15815;46.760;19.604;2022-12-18T00:42:28;75.68;;;33.70;;
28627;SDS011;15815;46.760;19.604;2022-12-18T00:45:11;71.03;;;33.38;;
28627;SDS011;15815;46.760;19.604;2022-12-18T00:47:37;74.60;;;34.13;;
28627;SDS011;15815;46.760;19.604;2022-12-18T00:50:02;77.07;;;33.97;;
28627;SDS011;15815;46.760;19.604;2022-12-18T00:52:28;76.05;;;34.03;;
28627;SDS011;15815;46.760;19.604;2022-12-18T00:54:54;83.03;;;36.60;;
28627;SDS011;15815;46.760;19.604;2022-12-18T00:57:19;73.80;;;34.53;;
28627;SDS011;15815;46.760;19.604;2022-12-18T00:59:44;77.38;;;33.78;;
28627;SDS011;15815;46.760;19.604;2022-12-18T01:02:10;71.38;;;33.92;;
28627;SDS011;15815;46.760;19.604;2022-12-18T01:04:38;79.32;;;34.80;;
28627;SDS011;15815;46.760;19.604;2022-12-18T01:07:03;79.60;;;35.15;;
28627;SDS011;15815;46.760;19.604;2022-12-18T01:09:29;82.20;;;35.67;;
28627;SDS011;15815;46.760;19.604;2022-12-18T01:11:54;80.60;;;35.55;;
28627;SDS011;15815;46.760;19.604;2022-12-18T01:14:20;75.82;;;35.78;;
28627;SDS011;15815;46.760;19.604;2022-12-18T01:16:45;75.10;;;34.75;;
28627;SDS011;15815;46.760;19.604;2022-12-18T01:19:11;79.35;;;36.78;;
28627;SDS011;15815;46.760;19.604;2022-12-18T01:21:36;78.25;;;34.10;;
28627;SDS011;15815;46.760;19.604;2022-12-18T01:24:01;77.95;;;35.47;;
28627;SDS011;15815;46.760;19.604;2022-12-18T01:26:27;82.72;;;37.65;;
28627;SDS011;15815;46.760;19.604;2022-12-18T01:28:55;72.07;;;32.97;;
28627;SDS011;15815;46.760;19.604;2022-12-18T01:31:27;72.22;;;34.85;;
28627;SDS011;15815;46.760;19.604;2022-12-18T01:33:55;82.25;;;36.97;;
28627;SDS011;15815;46.760;19.604;2022-12-18T01:36:25;76.70;;;35.75;;
28627;SDS011;15815;46.760;19.604;2022-12-18T01:38:52;76.15;;;36.47;;
28627;SDS011;15815;46.760;19.604;2022-12-18T01:41:19;75.53;;;34.33;;
28627;SDS011;15815;46.760;19.604;2022-12-18T01:43:48;76.25;;;34.90;;
28627;SDS011;15815;46.760;19.604;2022-12-18T01:46:19;77.68;;;36.13;;
28627;SDS011;15815;46.760;19.604;2022-12-18T01:48:55;78.97;;;35.30;;
28627;SDS011;15815;46.760;19.604;2022-12-18T01:51:22;76.28;;;34.83;;
28627;SDS011;15815;46.760;19.604;2022-12-18T01:53:48;79.95;;;37.55;;
28627;SDS011;15815;46.760;19.604;2022-12-18T01:56:15;77.13;;;36.78;;
28627;SDS011;15815;46.760;19.604;2022-12-18T01:58:54;75.20;;;35.63;;
28627;SDS011;15815;46.760;19.604;2022-12-18T02:01:28;76.97;;;36.72;;
28627;SDS011;15815;46.760;19.604;2022-12-18T02:03:55;76.30;;;36.50;;
28627;SDS011;15815;46.760;19.604;2022-12-18T02:11:48;83.22;;;37.17;;
28627;SDS011;15815;46.760;19.604;2022-12-18T02:17:06;80.65;;;39.38;;
28627;SDS011;15815;46.760;19.604;2022-12-18T02:27:49;74.78;;;36.17;;
28627;SDS011;15815;46.760;19.604;2022-12-18T02:30:16;83.60;;;38.05;;
28627;SDS011;15815;46.760;19.604;2022-12-18T02:32:48;84.45;;;38.53;;
28627;SDS011;15815;46.760;19.604;2022-12-18T02:35:19;89.22;;;39.03;;
28627;SDS011;15815;46.760;19.604;2022-12-18T02:37:48;86.15;;;39.10;;
28627;SDS011;15815;46.760;19.604;2022-12-18T02:40:16;85.50;;;38.47;;
28627;SDS011;15815;46.760;19.604;2022-12-18T02:42:42;81.20;;;37.25;;
28627;SDS011;15815;46.760;19.604;2022-12-18T02:45:07;82.03;;;38.80;;
28627;SDS011;15815;46.760;19.604;2022-12-18T02:47:37;83.55;;;39.15;;
28627;SDS011;15815;46.760;19.604;2022-12-18T02:50:21;87.88;;;39.13;;
28627;SDS011;15815;46.760;19.604;2022-12-18T03:03:36;80.00;;;38.45;;
28627;SDS011;15815;46.760;19.604;2022-12-18T03:06:10;91.72;;;41.83;;
28627;SDS011;15815;46.760;19.604;2022-12-18T03:08:42;86.47;;;40.50;;
28627;SDS011;15815;46.760;19.604;2022-12-18T03:11:11;95.72;;;42.20;;
28627;SDS011;15815;46.760;19.604;2022-12-18T03:14:01;85.43;;;40.85;;
28627;SDS011;15815;46.760;19.604;2022-12-18T03:16:29;87.47;;;39.08;;
28627;SDS011;15815;46.760;19.604;2022-12-18T03:19:03;85.70;;;39.30;;
28627;SDS011;15815;46.760;19.604;2022-12-18T03:21:34;90.10;;;41.22;;
28627;SDS011;15815;46.760;19.604;2022-12-18T03:24:03;83.18;;;38.45;;
28627;SDS011;15815;46.760;19.604;2022-12-18T03:26:32;86.07;;;40.72;;
28627;SDS011;15815;46.760;19.604;2022-12-18T03:29:02;83.22;;;39.20;;
28627;SDS011;15815;46.760;19.604;2022-12-18T03:31:32;87.53;;;41.20;;
28627;SDS011;15815;46.760;19.604;2022-12-18T03:33:59;92.20;;;39.75;;
28627;SDS011;15815;46.760;19.604;2022-12-18T03:36:29;81.40;;;37.77;;
28627;SDS011;15815;46.760;19.604;2022-12-18T03:38:57;90.70;;;39.95;;
28627;SDS011;15815;46.760;19.604;2022-12-18T03:41:29;86.53;;;40.05;;
28627;SDS011;15815;46.760;19.604;2022-12-18T03:46:30;79.75;;;37.67;;
28627;SDS011;15815;46.760;19.604;2022-12-18T03:49:07;88.78;;;40.38;;
28627;SDS011;15815;46.760;19.604;2022-12-18T03:51:54;81.97;;;38.83;;
28627;SDS011;15815;46.760;19.604;2022-12-18T03:54:26;88.32;;;39.20;;
28627;SDS011;15815;46.760;19.604;2022-12-18T03:56:55;91.03;;;39.00;;
28627;SDS011;15815;46.760;19.604;2022-12-18T03:59:26;85.45;;;39.13;;
28627;SDS011;15815;46.760;19.604;2022-12-18T04:01:55;86.50;;;39.60;;
28627;SDS011;15815;46.760;19.604;2022-12-18T04:04:23;86.00;;;40.08;;
28627;SDS011;15815;46.760;19.604;2022-12-18T04:06:50;87.50;;;40.45;;
28627;SDS011;15815;46.760;19.604;2022-12-18T04:09:17;95.40;;;40.58;;
28627;SDS011;15815;46.760;19.604;2022-12-18T04:11:46;94.18;;;42.45;;
28627;SDS011;15815;46.760;19.604;2022-12-18T04:14:12;84.32;;;39.03;;
28627;SDS011;15815;46.760;19.604;2022-12-18T04:16:38;90.13;;;39.85;;
28627;SDS011;15815;46.760;19.604;2022-12-18T04:19:03;90.13;;;40.92;;
28627;SDS011;15815;46.760;19.604;2022-12-18T04:21:29;87.75;;;39.00;;
28627;SDS011;15815;46.760;19.604;2022-12-18T04:23:55;88.50;;;38.53;;
28627;SDS011;15815;46.760;19.604;2022-12-18T04:26:20;94.65;;;42.03;;
28627;SDS011;15815;46.760;19.604;2022-12-18T04:28:46;87.28;;;39.22;;
28627;SDS011;15815;46.760;19.604;2022-12-18T04:31:11;92.57;;;40.90;;
28627;SDS011;15815;46.760;19.604;2022-12-18T04:33:37;90.82;;;41.42;;
28627;SDS011;15815;46.760;19.604;2022-12-18T04:36:02;98.25;;;42.83;;
28627;SDS011;15815;46.760;19.604;2022-12-18T04:38:28;90.43;;;40.88;;
28627;SDS011;15815;46.760;19.604;2022-12-18T04:40:53;89.97;;;38.97;;
28627;SDS011;15815;46.760;19.604;2022-12-18T04:43:19;89.93;;;42.17;;
28627;SDS011;15815;46.760;19.604;2022-12-18T04:45:44;102.07;;;44.03;;
28627;SDS011;15815;46.760;19.604;2022-12-18T04:48:11;96.28;;;42.83;;
28627;SDS011;15815;46.760;19.604;2022-12-18T04:50:36;101.20;;;43.83;;
28627;SDS011;15815;46.760;19.604;2022-12-18T04:53:02;98.30;;;44.67;;
28627;SDS011;15815;46.760;19.604;2022-12-18T04:55:27;94.80;;;44.20;;
28627;SDS011;15815;46.760;19.604;2022-12-18T04:57:53;93.85;;;42.15;;
28627;SDS011;15815;46.760;19.604;2022-12-18T05:00:18;97.93;;;45.13;;
28627;SDS011;15815;46.760;19.604;2022-12-18T05:02:44;96.15;;;42.78;;
28627;SDS011;15815;46.760;19.604;2022-12-18T05:05:10;95.50;;;45.35;;
28627;SDS011;15815;46.760;19.604;2022-12-18T05:07:36;104.38;;;48.25;;
28627;SDS011;15815;46.760;19.604;2022-12-18T05:10:02;100.43;;;43.85;;
28627;SDS011;15815;46.760;19.604;2022-12-18T05:12:27;92.30;;;40.67;;
28627;SDS011;15815;46.760;19.604;2022-12-18T05:14:53;94.97;;;42.80;;
28627;SDS011;15815;46.760;19.604;2022-12-18T05:17:18;97.97;;;43.22;;
28627;SDS011;15815;46.760;19.604;2022-12-18T05:19:44;91.40;;;43.85;;
28627;SDS011;15815;46.760;19.604;2022-12-18T05:22:09;97.88;;;45.28;;
28627;SDS011;15815;46.760;19.604;2022-12-18T05:24:35;90.35;;;39.53;;
28627;SDS011;15815;46.760;19.604;2022-12-18T05:27:00;87.93;;;40.88;;
28627;SDS011;15815;46.760;19.604;2022-12-18T05:29:26;84.85;;;37.90;;
28627;SDS011;15815;46.760;19.604;2022-12-18T05:31:51;101.07;;;43.47;;
28627;SDS011;15815;46.760;19.604;2022-12-18T05:34:18;98.57;;;44.78;;
28627;SDS011;15815;46.760;19.604;2022-12-18T05:36:43;94.70;;;42.58;;
28627;SDS011;15815;46.760;19.604;2022-12-18T05:39:09;91.90;;;41.78;;
28627;SDS011;15815;46.760;19.604;2022-12-18T05:41:34;89.68;;;41.17;;
28627;SDS011;15815;46.760;19.604;2022-12-18T05:43:59;93.55;;;42.30;;
28627;SDS011;15815;46.760;19.604;2022-12-18T05:46:25;104.97;;;44.78;;
28627;SDS011;15815;46.760;19.604;2022-12-18T05:48:51;91.82;;;43.60;;
28627;SDS011;15815;46.760;19.604;2022-12-18T05:51:17;94.55;;;43.28;;
28627;SDS011;15815;46.760;19.604;2022-12-18T05:53:45;94.57;;;43.00;;
28627;SDS011;15815;46.760;19.604;2022-12-18T05:56:15;94.07;;;41.60;;
28627;SDS011;15815;46.760;19.604;2022-12-18T05:58:44;99.70;;;43.10;;
28627;SDS011;15815;46.760;19.604;2022-12-18T06:01:15;94.22;;;41.67;;
28627;SDS011;15815;46.760;19.604;2022-12-18T06:03:43;104.50;;;44.70;;
28627;SDS011;15815;46.760;19.604;2022-12-18T06:08:45;97.28;;;42.80;;
28627;SDS011;15815;46.760;19.604;2022-12-18T06:11:11;92.35;;;39.67;;
28627;SDS011;15815;46.760;19.604;2022-12-18T06:13:37;101.05;;;42.45;;
28627;SDS011;15815;46.760;19.604;2022-12-18T06:16:06;97.25;;;40.40;;
28627;SDS011;15815;46.760;19.604;2022-12-18T06:18:32;97.07;;;40.80;;
28627;SDS011;15815;46.760;19.604;2022-12-18T06:20:58;86.28;;;39.30;;
28627;SDS011;15815;46.760;19.604;2022-12-18T06:23:24;98.45;;;40.63;;
28627;SDS011;15815;46.760;19.604;2022-12-18T06:25:53;88.20;;;39.70;;
28627;SDS011;15815;46.760;19.604;2022-12-18T06:28:18;92.05;;;40.85;;
28627;SDS011;15815;46.760;19.604;2022-12-18T06:30:44;88.45;;;41.38;;
28627;SDS011;15815;46.760;19.604;2022-12-18T06:33:11;115.93;;;48.92;;
28627;SDS011;15815;46.760;19.604;2022-12-18T06:35:38;106.15;;;48.25;;
28627;SDS011;15815;46.760;19.604;2022-12-18T06:38:03;118.90;;;49.35;;
28627;SDS011;15815;46.760;19.604;2022-12-18T06:40:29;115.53;;;49.90;;
28627;SDS011;15815;46.760;19.604;2022-12-18T06:42:54;114.55;;;48.97;;
28627;SDS011;15815;46.760;19.604;2022-12-18T06:45:20;115.10;;;49.65;;
28627;SDS011;15815;46.760;19.604;2022-12-18T06:47:45;161.40;;;67.78;;
28627;SDS011;15815;46.760;19.604;2022-12-18T06:50:10;222.82;;;94.55;;
28627;SDS011;15815;46.760;19.604;2022-12-18T06:52:37;184.65;;;80.13;;
28627;SDS011;15815;46.760;19.604;2022-12-18T06:55:04;145.15;;;63.72;;
28627;SDS011;15815;46.760;19.604;2022-12-18T06:57:31;134.38;;;57.65;;
28627;SDS011;15815;46.760;19.604;2022-12-18T06:59:56;106.25;;;51.63;;
28627;SDS011;15815;46.760;19.604;2022-12-18T07:02:21;110.43;;;50.92;;
28627;SDS011;15815;46.760;19.604;2022-12-18T07:04:47;109.82;;;50.33;;
28627;SDS011;15815;46.760;19.604;2022-12-18T07:07:18;98.85;;;46.33;;
28627;SDS011;15815;46.760;19.604;2022-12-18T07:09:44;91.95;;;45.13;;
28627;SDS011;15815;46.760;19.604;2022-12-18T07:12:09;95.63;;;45.00;;
28627;SDS011;15815;46.760;19.604;2022-12-18T07:14:35;97.22;;;44.40;;
28627;SDS011;15815;46.760;19.604;2022-12-18T07:17:03;93.22;;;44.58;;
28627;SDS011;15815;46.760;19.604;2022-12-18T07:19:29;86.82;;;44.45;;
28627;SDS011;15815;46.760;19.604;2022-12-18T07:21:54;83.78;;;44.55;;
28627;SDS011;15815;46.760;19.604;2022-12-18T07:24:20;87.35;;;45.00;;
28627;SDS011;15815;46.760;19.604;2022-12-18T07:26:46;81.80;;;42.58;;
28627;SDS011;15815;46.760;19.604;2022-12-18T07:29:12;95.03;;;48.85;;
28627;SDS011;15815;46.760;19.604;2022-12-18T07:31:38;96.68;;;48.33;;
28627;SDS011;15815;46.760;19.604;2022-12-18T07:34:03;95.78;;;47.72;;
28627;SDS011;15815;46.760;19.604;2022-12-18T07:36:29;90.50;;;49.95;;
28627;SDS011;15815;46.760;19.604;2022-12-18T07:38:54;92.53;;;51.03;;
28627;SDS011;15815;46.760;19.604;2022-12-18T07:41:20;118.68;;;65.90;;
28627;SDS011;15815;46.760;19.604;2022-12-18T07:43:45;102.43;;;57.15;;
28627;SDS011;15815;46.760;19.604;2022-12-18T07:46:11;101.43;;;59.00;;
28627;SDS011;15815;46.760;19.604;2022-12-18T07:48:41;91.28;;;53.45;;
28627;SDS011;15815;46.760;19.604;2022-12-18T07:51:07;79.85;;;44.33;;
28627;SDS011;15815;46.760;19.604;2022-12-18T07:53:33;81.53;;;46.25;;
28627;SDS011;15815;46.760;19.604;2022-12-18T07:56:01;75.45;;;41.88;;
28627;SDS011;15815;46.760;19.604;2022-12-18T07:58:29;76.63;;;41.85;;
28627;SDS011;15815;46.760;19.604;2022-12-18T08:01:01;67.72;;;39.30;;
28627;SDS011;15815;46.760;19.604;2022-12-18T08:03:31;68.53;;;39.75;;
28627;SDS011;15815;46.760;19.604;2022-12-18T08:05:58;63.45;;;37.33;;
28627;SDS011;15815;46.760;19.604;2022-12-18T08:08:25;64.28;;;38.17;;
28627;SDS011;15815;46.760;19.604;2022-12-18T08:10:50;66.10;;;38.17;;
28627;SDS011;15815;46.760;19.604;2022-12-18T08:13:16;66.82;;;38.63;;
28627;SDS011;15815;46.760;19.604;2022-12-18T08:15:41;70.07;;;42.45;;
28627;SDS011;15815;46.760;19.604;2022-12-18T08:18:06;69.13;;;42.75;;
28627;SDS011;15815;46.760;19.604;2022-12-18T08:20:32;65.15;;;38.60;;
28627;SDS011;15815;46.760;19.604;2022-12-18T08:22:57;67.22;;;39.47;;
28627;SDS011;15815;46.760;19.604;2022-12-18T08:25:23;58.67;;;36.03;;
28627;SDS011;15815;46.760;19.604;2022-12-18T08:27:48;61.03;;;36.85;;
28627;SDS011;15815;46.760;19.604;2022-12-18T08:30:14;63.15;;;37.72;;
28627;SDS011;15815;46.760;19.604;2022-12-18T08:32:39;58.78;;;35.60;;
28627;SDS011;15815;46.760;19.604;2022-12-18T08:35:05;60.40;;;37.92;;
28627;SDS011;15815;46.760;19.604;2022-12-18T08:37:30;62.22;;;37.40;;
28627;SDS011;15815;46.760;19.604;2022-12-18T08:39:56;60.00;;;37.08;;
28627;SDS011;15815;46.760;19.604;2022-12-18T08:42:21;59.08;;;36.50;;
28627;SDS011;15815;46.760;19.604;2022-12-18T08:45:05;59.08;;;37.75;;
28627;SDS011;15815;46.760;19.604;2022-12-18T08:47:33;57.50;;;37.60;;
28627;SDS011;15815;46.760;19.604;2022-12-18T08:49:58;66.85;;;39.75;;
28627;SDS011;15815;46.760;19.604;2022-12-18T08:52:23;66.18;;;41.78;;
28627;SDS011;15815;46.760;19.604;2022-12-18T08:54:49;62.58;;;39.65;;
28627;SDS011;15815;46.760;19.604;2022-12-18T08:57:14;60.97;;;40.05;;
28627;SDS011;15815;46.760;19.604;2022-12-18T08:59:40;58.08;;;37.80;;
28627;SDS011;15815;46.760;19.604;2022-12-18T09:02:05;66.00;;;42.42;;
28627;SDS011;15815;46.760;19.604;2022-12-18T09:04:30;60.38;;;40.30;;
28627;SDS011;15815;46.760;19.604;2022-12-18T09:06:56;59.88;;;39.35;;
28627;SDS011;15815;46.760;19.604;2022-12-18T09:09:21;62.58;;;39.88;;
28627;SDS011;15815;46.760;19.604;2022-12-18T09:11:47;68.35;;;40.25;;
28627;SDS011;15815;46.760;19.604;2022-12-18T09:14:12;64.25;;;41.88;;
28627;SDS011;15815;46.760;19.604;2022-12-18T09:16:38;66.40;;;41.40;;
28627;SDS011;15815;46.760;19.604;2022-12-18T09:19:04;61.67;;;41.47;;
28627;SDS011;15815;46.760;19.604;2022-12-18T09:21:31;65.03;;;41.58;;
28627;SDS011;15815;46.760;19.604;2022-12-18T09:23:58;59.00;;;37.58;;
28627;SDS011;15815;46.760;19.604;2022-12-18T09:26:24;63.30;;;38.83;;
28627;SDS011;15815;46.760;19.604;2022-12-18T09:28:50;61.00;;;39.13;;
28627;SDS011;15815;46.760;19.604;2022-12-18T09:31:17;73.88;;;44.20;;
28627;SDS011;15815;46.760;19.604;2022-12-18T09:33:43;67.07;;;40.72;;
28627;SDS011;15815;46.760;19.604;2022-12-18T09:36:10;59.67;;;39.28;;
28627;SDS011;15815;46.760;19.604;2022-12-18T09:38:38;61.20;;;39.65;;
28627;SDS011;15815;46.760;19.604;2022-12-18T09:43:51;76.93;;;39.75;;
28627;SDS011;15815;46.760;19.604;2022-12-18T09:46:26;61.45;;;37.63;;
28627;SDS011;15815;46.760;19.604;2022-12-18T09:49:01;57.95;;;36.67;;
28627;SDS011;15815;46.760;19.604;2022-12-18T09:54:01;60.72;;;38.00;;
28627;SDS011;15815;46.760;19.604;2022-12-18T09:56:31;61.75;;;39.72;;
28627;SDS011;15815;46.760;19.604;2022-12-18T09:59:02;53.70;;;36.47;;
28627;SDS011;15815;46.760;19.604;2022-12-18T10:01:29;54.65;;;35.08;;
28627;SDS011;15815;46.760;19.604;2022-12-18T10:03:56;54.80;;;37.40;;
28627;SDS011;15815;46.760;19.604;2022-12-18T10:06:31;54.78;;;36.70;;
28627;SDS011;15815;46.760;19.604;2022-12-18T10:09:18;57.70;;;38.30;;
28627;SDS011;15815;46.760;19.604;2022-12-18T10:14:57;52.75;;;35.88;;
28627;SDS011;15815;46.760;19.604;2022-12-18T10:17:41;54.00;;;37.55;;
28627;SDS011;15815;46.760;19.604;2022-12-18T10:20:19;151.13;;;43.83;;
28627;SDS011;15815;46.760;19.604;2022-12-18T10:23:08;72.75;;;38.15;;
28627;SDS011;15815;46.760;19.604;2022-12-18T10:25:52;48.60;;;33.25;;
28627;SDS011;15815;46.760;19.604;2022-12-18T10:28:25;49.90;;;34.10;;
28627;SDS011;15815;46.760;19.604;2022-12-18T10:30:51;50.55;;;32.92;;
28627;SDS011;15815;46.760;19.604;2022-12-18T10:33:22;46.92;;;32.53;;
28627;SDS011;15815;46.760;19.604;2022-12-18T10:35:51;46.13;;;30.98;;
28627;SDS011;15815;46.760;19.604;2022-12-18T10:41:03;50.80;;;33.13;;
28627;SDS011;15815;46.760;19.604;2022-12-18T10:46:35;42.53;;;30.50;;
28627;SDS011;15815;46.760;19.604;2022-12-18T10:49:01;46.58;;;32.22;;
28627;SDS011;15815;46.760;19.604;2022-12-18T10:51:29;48.10;;;32.03;;
28627;SDS011;15815;46.760;19.604;2022-12-18T10:54:03;44.42;;;30.77;;
28627;SDS011;15815;46.760;19.604;2022-12-18T10:56:30;42.50;;;30.02;;
28627;SDS011;15815;46.760;19.604;2022-12-18T10:59:03;48.88;;;31.52;;
28627;SDS011;15815;46.760;19.604;2022-12-18T11:01:45;46.45;;;31.42;;
28627;SDS011;15815;46.760;19.604;2022-12-18T11:04:16;45.60;;;31.35;;
28627;SDS011;15815;46.760;19.604;2022-12-18T11:06:52;42.40;;;28.63;;
28627;SDS011;15815;46.760;19.604;2022-12-18T11:09:20;41.38;;;28.20;;
28627;SDS011;15815;46.760;19.604;2022-12-18T11:11:55;43.20;;;28.05;;
28627;SDS011;15815;46.760;19.604;2022-12-18T11:14:25;40.20;;;28.10;;
28627;SDS011;15815;46.760;19.604;2022-12-18T11:17:22;42.75;;;28.90;;
28627;SDS011;15815;46.760;19.604;2022-12-18T11:19:58;41.22;;;28.17;;
28627;SDS011;15815;46.760;19.604;2022-12-18T11:22:29;46.55;;;31.00;;
28627;SDS011;15815;46.760;19.604;2022-12-18T11:24:57;38.97;;;26.83;;
28627;SDS011;15815;46.760;19.604;2022-12-18T11:27:35;38.10;;;26.75;;
28627;SDS011;15815;46.760;19.604;2022-12-18T11:30:13;45.83;;;29.00;;
28627;SDS011;15815;46.760;19.604;2022-12-18T11:38:10;42.58;;;26.77;;
28627;SDS011;15815;46.760;19.604;2022-12-18T11:40:38;40.10;;;27.55;;
28627;SDS011;15815;46.760;19.604;2022-12-18T11:43:10;37.90;;;25.10;;
28627;SDS011;15815;46.760;19.604;2022-12-18T11:45:52;37.90;;;26.13;;
28627;SDS011;15815;46.760;19.604;2022-12-18T11:48:24;38.22;;;26.17;;
28627;SDS011;15815;46.760;19.604;2022-12-18T11:50:55;39.78;;;27.67;;
28627;SDS011;15815;46.760;19.604;2022-12-18T11:53:23;44.08;;;28.88;;
28627;SDS011;15815;46.760;19.604;2022-12-18T12:01:20;41.78;;;26.77;;
28627;SDS011;15815;46.760;19.604;2022-12-18T12:09:52;38.55;;;25.10;;
28627;SDS011;15815;46.760;19.604;2022-12-18T12:26:52;41.53;;;25.70;;
28627;SDS011;15815;46.760;19.604;2022-12-18T12:40:34;42.20;;;24.67;;
28627;SDS011;15815;46.760;19.604;2022-12-18T12:43:15;38.00;;;23.05;;
28627;SDS011;15815;46.760;19.604;2022-12-18T12:45:51;33.47;;;20.73;;
28627;SDS011;15815;46.760;19.604;2022-12-18T12:51:00;29.50;;;17.35;;
28627;SDS011;15815;46.760;19.604;2022-12-18T12:53:33;39.22;;;20.90;;
28627;SDS011;15815;46.760;19.604;2022-12-18T12:56:02;36.78;;;22.13;;
28627;SDS011;15815;46.760;19.604;2022-12-18T12:58:35;43.40;;;22.90;;
28627;SDS011;15815;46.760;19.604;2022-12-18T13:09:00;36.40;;;17.83;;
28627;SDS011;15815;46.760;19.604;2022-12-18T13:11:42;38.17;;;19.50;;
28627;SDS011;15815;46.760;19.604;2022-12-18T13:14:32;34.67;;;18.90;;
28627;SDS011;15815;46.760;19.604;2022-12-18T13:17:42;34.70;;;19.48;;
28627;SDS011;15815;46.760;19.604;2022-12-18T13:20:07;37.78;;;20.70;;
28627;SDS011;15815;46.760;19.604;2022-12-18T13:22:36;40.90;;;21.87;;
28627;SDS011;15815;46.760;19.604;2022-12-18T13:25:03;33.67;;;18.23;;
28627;SDS011;15815;46.760;19.604;2022-12-18T13:28:00;33.42;;;19.73;;
28627;SDS011;15815;46.760;19.604;2022-12-18T13:31:01;55.38;;;26.00;;
28627;SDS011;15815;46.760;19.604;2022-12-18T13:38:39;41.28;;;22.98;;
28627;SDS011;15815;46.760;19.604;2022-12-18T13:46:47;41.50;;;23.40;;
28627;SDS011;15815;46.760;19.604;2022-12-18T13:49:25;41.42;;;23.13;;
28627;SDS011;15815;46.760;19.604;2022-12-18T13:51:52;45.33;;;24.55;;
28627;SDS011;15815;46.760;19.604;2022-12-18T13:54:37;44.55;;;23.80;;
28627;SDS011;15815;46.760;19.604;2022-12-18T13:57:05;45.03;;;23.95;;
28627;SDS011;15815;46.760;19.604;2022-12-18T14:00:19;47.08;;;23.75;;
28627;SDS011;15815;46.760;19.604;2022-12-18T14:02:48;48.92;;;27.50;;
28627;SDS011;15815;46.760;19.604;2022-12-18T14:05:48;44.13;;;22.95;;
28627;SDS011;15815;46.760;19.604;2022-12-18T14:08:15;56.72;;;29.38;;
28627;SDS011;15815;46.760;19.604;2022-12-18T14:10:45;54.28;;;29.00;;
28627;SDS011;15815;46.760;19.604;2022-12-18T14:13:32;53.63;;;30.10;;
28627;SDS011;15815;46.760;19.604;2022-12-18T14:16:03;43.25;;;23.70;;
28627;SDS011;15815;46.760;19.604;2022-12-18T14:21:28;42.75;;;22.45;;
28627;SDS011;15815;46.760;19.604;2022-12-18T14:24:14;38.75;;;20.10;;
28627;SDS011;15815;46.760;19.604;2022-12-18T14:26:42;42.90;;;23.40;;
28627;SDS011;15815;46.760;19.604;2022-12-18T14:29:41;39.78;;;21.08;;
28627;SDS011;15815;46.760;19.604;2022-12-18T14:34:39;58.28;;;29.58;;
28627;SDS011;15815;46.760;19.604;2022-12-18T14:37:05;46.13;;;23.95;;
28627;SDS011;15815;46.760;19.604;2022-12-18T14:39:34;59.40;;;29.33;;
28627;SDS011;15815;46.760;19.604;2022-12-18T14:41:59;61.72;;;30.55;;
28627;SDS011;15815;46.760;19.604;2022-12-18T14:44:25;70.65;;;35.75;;
28627;SDS011;15815;46.760;19.604;2022-12-18T14:46:50;65.57;;;34.10;;
28627;SDS011;15815;46.760;19.604;2022-12-18T14:49:32;58.03;;;29.85;;
28627;SDS011;15815;46.760;19.604;2022-12-18T14:52:00;53.55;;;30.27;;
28627;SDS011;15815;46.760;19.604;2022-12-18T14:54:28;54.55;;;31.02;;
28627;SDS011;15815;46.760;19.604;2022-12-18T14:59:30;59.65;;;32.00;;
28627;SDS011;15815;46.760;19.604;2022-12-18T15:05:03;83.53;;;47.42;;
28627;SDS011;15815;46.760;19.604;2022-12-18T15:07:43;88.75;;;51.30;;
28627;SDS011;15815;46.760;19.604;2022-12-18T15:10:15;121.93;;;71.88;;
28627;SDS011;15815;46.760;19.604;2022-12-18T15:12:47;97.18;;;56.90;;
28627;SDS011;15815;46.760;19.604;2022-12-18T15:20:41;97.00;;;53.55;;
28627;SDS011;15815;46.760;19.604;2022-12-18T15:23:20;109.30;;;61.35;;
28627;SDS011;15815;46.760;19.604;2022-12-18T15:25:56;106.00;;;58.50;;
28627;SDS011;15815;46.760;19.604;2022-12-18T15:28:28;96.65;;;55.00;;
28627;SDS011;15815;46.760;19.604;2022-12-18T15:30:59;80.22;;;46.10;;
28627;SDS011;15815;46.760;19.604;2022-12-18T15:33:26;82.25;;;47.25;;
28627;SDS011;15815;46.760;19.604;2022-12-18T15:35:56;81.90;;;46.15;;
28627;SDS011;15815;46.760;19.604;2022-12-18T15:38:26;86.45;;;47.85;;
28627;SDS011;15815;46.760;19.604;2022-12-18T15:40:52;93.43;;;49.20;;
28627;SDS011;15815;46.760;19.604;2022-12-18T15:43:21;152.02;;;66.97;;
28627;SDS011;15815;46.760;19.604;2022-12-18T15:46:04;147.20;;;63.97;;
28627;SDS011;15815;46.760;19.604;2022-12-18T15:48:41;108.63;;;54.88;;
28627;SDS011;15815;46.760;19.604;2022-12-18T15:51:11;148.73;;;65.82;;
28627;SDS011;15815;46.760;19.604;2022-12-18T15:55:47;183.52;;;75.43;;
28627;SDS011;15815;46.760;19.604;2022-12-18T15:58:30;182.20;;;75.95;;
28627;SDS011;15815;46.760;19.604;2022-12-18T16:00:59;151.65;;;68.30;;
28627;SDS011;15815;46.760;19.604;2022-12-18T16:03:26;191.45;;;80.57;;
28627;SDS011;15815;46.760;19.604;2022-12-18T16:05:52;185.07;;;79.68;;
28627;SDS011;15815;46.760;19.604;2022-12-18T16:08:20;148.77;;;63.85;;
28627;SDS011;15815;46.760;19.604;2022-12-18T16:10:46;132.20;;;57.53;;
28627;SDS011;15815;46.760;19.604;2022-12-18T16:15:55;84.85;;;43.65;;
28627;SDS011;15815;46.760;19.604;2022-12-18T16:19:54;100.43;;;48.72;;
28627;SDS011;15815;46.760;19.604;2022-12-18T16:22:20;122.38;;;56.28;;
28627;SDS011;15815;46.760;19.604;2022-12-18T16:24:54;167.40;;;75.43;;
28627;SDS011;15815;46.760;19.604;2022-12-18T16:27:21;144.02;;;65.45;;
28627;SDS011;15815;46.760;19.604;2022-12-18T16:29:51;143.75;;;65.57;;
28627;SDS011;15815;46.760;19.604;2022-12-18T16:32:18;141.50;;;68.03;;